createdAt,value
2018-12-09T00:01:14.823Z,3.87
2018-12-09T00:03:42.788Z,6.90
2018-12-09T00:06:10.838Z,4.70
2018-12-09T00:08:38.911Z,6.20
2018-12-09T00:11:07.493Z,4.27
2018-12-09T00:13:35.504Z,7.20
2018-12-09T00:16:03.575Z,4.80
2018-12-09T00:18:31.553Z,6.30
2018-12-09T00:20:59.580Z,5.43
2018-12-09T00:23:27.546Z,8.40
2018-12-09T00:25:55.567Z,5.53
2018-12-09T00:28:23.598Z,4.93
2018-12-09T00:30:51.664Z,4.50
2018-12-09T00:33:26.479Z,5.13
2018-12-09T00:35:54.531Z,5.07
2018-12-09T00:38:22.560Z,7.30
2018-12-09T00:40:50.649Z,5.63
2018-12-09T00:43:18.697Z,6.63
2018-12-09T00:45:46.676Z,5.50
2018-12-09T00:48:14.636Z,5.57
2018-12-09T00:50:42.679Z,4.53
2018-12-09T00:53:10.662Z,6.13
2018-12-09T00:55:39.206Z,5.00
2018-12-09T00:58:07.169Z,5.10
2018-12-09T01:00:35.205Z,4.27
2018-12-09T01:03:03.153Z,7.87
2018-12-09T01:05:31.118Z,5.83
2018-12-09T01:07:59.157Z,2.90
2018-12-09T01:10:27.219Z,4.43
2018-12-09T01:12:55.187Z,6.37
2018-12-09T01:15:23.156Z,5.40
2018-12-09T01:17:51.122Z,6.10
2018-12-09T01:20:19.161Z,2.57
2018-12-09T01:22:48.625Z,2.23
2018-12-09T01:25:16.979Z,2.30
2018-12-09T01:27:44.960Z,1.23
2018-12-09T01:30:13.009Z,1.50
2018-12-09T01:32:41.111Z,1.23
2018-12-09T01:35:09.165Z,5.07
2018-12-09T01:37:37.457Z,0.60
2018-12-09T01:40:05.831Z,1.40
2018-12-09T01:42:33.821Z,1.47
2018-12-09T01:45:01.876Z,1.07
2018-12-09T01:47:29.923Z,2.07
2018-12-09T01:49:57.985Z,1.57
2018-12-09T01:52:25.971Z,1.33
2018-12-09T01:54:53.936Z,1.10
2018-12-09T01:57:22.019Z,1.90
2018-12-09T01:59:50.290Z,0.50
2018-12-09T02:02:18.323Z,0.70
2018-12-09T02:04:46.287Z,0.50
2018-12-09T02:07:14.256Z,0.77
2018-12-09T02:09:42.326Z,0.73
2018-12-09T02:12:10.458Z,0.60
2018-12-09T02:14:38.418Z,0.53
2018-12-09T02:17:06.443Z,1.87
2018-12-09T02:19:34.446Z,0.63
2018-12-09T02:22:02.405Z,0.80
2018-12-09T02:24:30.411Z,1.77
2018-12-09T02:26:59.850Z,2.10
2018-12-09T02:29:27.886Z,0.97
2018-12-09T02:31:55.835Z,1.20
2018-12-09T02:34:23.902Z,2.40
2018-12-09T02:36:51.852Z,3.30
2018-12-09T02:39:19.996Z,1.77
2018-12-09T02:41:48.017Z,1.70
2018-12-09T02:44:16.086Z,3.13
2018-12-09T02:46:44.022Z,3.57
2018-12-09T02:49:11.952Z,1.73
2018-12-09T02:51:40.018Z,2.33
2018-12-09T02:54:08.052Z,5.53
2018-12-09T02:56:36.421Z,4.53
2018-12-09T02:59:04.414Z,1.90
2018-12-09T03:01:32.601Z,1.53
2018-12-09T03:04:00.639Z,1.00
2018-12-09T03:06:28.618Z,1.60
2018-12-09T03:08:56.822Z,2.47
2018-12-09T03:11:24.903Z,3.13
2018-12-09T03:13:52.904Z,3.10
2018-12-09T03:16:22.077Z,2.53
2018-12-09T03:18:50.038Z,2.13
2018-12-09T03:21:18.013Z,2.80
2018-12-09T03:23:46.041Z,4.73
2018-12-09T03:26:14.004Z,2.07
2018-12-09T03:28:41.963Z,0.40
2018-12-09T03:31:12.906Z,1.43
2018-12-09T03:33:41.071Z,4.30
2018-12-09T03:36:09.141Z,1.53
2018-12-09T03:38:37.143Z,4.67
2018-12-09T03:41:05.177Z,6.30
2018-12-09T03:43:33.653Z,2.07
2018-12-09T03:46:01.658Z,7.37
2018-12-09T03:48:36.297Z,3.93
2018-12-09T03:51:04.317Z,0.67
2018-12-09T03:53:32.678Z,2.70
2018-12-09T03:56:03.911Z,2.87
2018-12-09T03:58:31.887Z,2.47
2018-12-09T04:00:59.946Z,5.00
2018-12-09T04:03:27.965Z,2.47
2018-12-09T04:05:55.951Z,2.43
2018-12-09T04:08:23.918Z,5.60
2018-12-09T04:10:51.890Z,2.23
2018-12-09T04:13:19.870Z,1.37
2018-12-09T04:15:47.919Z,3.73
2018-12-09T04:18:15.923Z,3.63
2018-12-09T04:20:43.871Z,2.90
2018-12-09T04:23:11.858Z,1.60
2018-12-09T04:25:40.005Z,1.23
2018-12-09T04:28:08.015Z,0.40
2018-12-09T04:30:35.962Z,2.73
2018-12-09T04:33:03.946Z,1.67
2018-12-09T04:35:31.917Z,0.93
2018-12-09T04:37:59.891Z,1.97
2018-12-09T04:40:27.857Z,3.83
2018-12-09T04:42:55.851Z,2.30
2018-12-09T04:45:23.828Z,0.40
2018-12-09T04:47:51.888Z,3.07
2018-12-09T04:50:19.867Z,0.53
2018-12-09T04:52:48.109Z,0.40
2018-12-09T04:55:16.086Z,1.23
2018-12-09T04:57:44.169Z,3.33
2018-12-09T05:00:17.894Z,0.40
2018-12-09T05:02:45.842Z,3.43
2018-12-09T05:05:13.881Z,2.57
2018-12-09T05:07:41.930Z,0.50
2018-12-09T05:10:09.903Z,1.27
2018-12-09T05:12:37.962Z,1.70
2018-12-09T05:15:06.071Z,0.50
2018-12-09T05:17:34.017Z,0.40
2018-12-09T05:20:02.318Z,4.33
2018-12-09T05:22:30.286Z,2.47
2018-12-09T05:24:58.305Z,4.47
2018-12-09T05:27:26.325Z,3.90
2018-12-09T05:29:54.368Z,1.07
2018-12-09T05:32:22.383Z,6.10
2018-12-09T05:34:50.398Z,0.97
2018-12-09T05:37:18.453Z,1.20
2018-12-09T05:39:46.962Z,1.53
2018-12-09T05:42:14.917Z,2.83
2018-12-09T05:44:42.936Z,1.53
2018-12-09T05:47:11.076Z,3.87
2018-12-09T05:49:39.020Z,0.50
2018-12-09T05:52:07.482Z,1.07
2018-12-09T05:54:35.429Z,1.17
2018-12-09T05:57:03.513Z,0.70
2018-12-09T05:59:31.715Z,0.70
2018-12-09T06:02:05.402Z,1.07
2018-12-09T06:04:33.373Z,4.23
2018-12-09T06:07:01.318Z,2.23
2018-12-09T06:09:29.351Z,2.93
2018-12-09T06:11:57.323Z,1.43
2018-12-09T06:14:25.323Z,2.17
2018-12-09T06:16:53.304Z,1.43
2018-12-09T06:19:21.268Z,3.77
2018-12-09T06:21:49.409Z,5.23
2018-12-09T06:24:17.461Z,3.63
2018-12-09T06:26:45.478Z,3.07
2018-12-09T06:29:13.457Z,1.57
2018-12-09T06:31:41.418Z,3.00
2018-12-09T06:34:09.513Z,1.50
2018-12-09T06:36:37.498Z,3.20
2018-12-09T06:39:05.660Z,1.13
2018-12-09T06:41:33.635Z,4.97
2018-12-09T06:44:01.622Z,3.43
2018-12-09T06:46:29.615Z,4.03
2018-12-09T06:48:57.629Z,2.73
2018-12-09T06:51:25.592Z,5.33
2018-12-09T06:53:53.563Z,3.00
2018-12-09T06:56:21.531Z,6.00
2018-12-09T06:58:49.624Z,1.80
2018-12-09T07:01:17.588Z,3.73
2018-12-09T07:03:45.562Z,5.80
2018-12-09T07:06:14.075Z,4.77
2018-12-09T07:08:42.124Z,5.00
2018-12-09T07:11:10.257Z,7.30
2018-12-09T07:13:38.235Z,4.93
2018-12-09T07:16:06.231Z,4.20
2018-12-09T07:18:34.707Z,5.93
2018-12-09T07:21:02.751Z,6.43
2018-12-09T07:23:30.801Z,6.97
2018-12-09T07:25:58.824Z,2.83
2018-12-09T07:28:26.814Z,5.70
2018-12-09T07:30:55.295Z,4.70
2018-12-09T07:33:23.233Z,4.40
2018-12-09T07:35:51.229Z,7.80
2018-12-09T07:38:19.247Z,5.43
2018-12-09T07:40:47.284Z,5.20
2018-12-09T07:43:15.261Z,8.63
2018-12-09T07:45:43.234Z,9.20
2018-12-09T07:48:11.216Z,5.37
2018-12-09T07:50:39.207Z,2.23
2018-12-09T07:53:07.169Z,3.33
2018-12-09T07:55:35.265Z,9.67
2018-12-09T07:58:03.617Z,15.77
2018-12-09T08:00:31.686Z,9.63
2018-12-09T08:02:59.817Z,5.30
2018-12-09T08:05:27.914Z,3.47
2018-12-09T08:07:56.104Z,10.00
2018-12-09T08:10:24.141Z,5.33
2018-12-09T08:12:52.115Z,6.70
2018-12-09T08:15:20.191Z,7.80
2018-12-09T08:17:48.155Z,4.93
2018-12-09T08:20:16.358Z,8.33
2018-12-09T08:22:44.433Z,8.30
2018-12-09T08:25:12.541Z,7.97
2018-12-09T08:27:40.839Z,5.70
2018-12-09T08:30:08.950Z,7.20
2018-12-09T08:32:37.157Z,6.77
2018-12-09T08:35:05.278Z,3.47
2018-12-09T08:37:33.249Z,5.07
2018-12-09T08:40:01.239Z,4.80
2018-12-09T08:42:29.214Z,9.17
2018-12-09T08:44:57.304Z,8.80
2018-12-09T08:47:25.678Z,6.30
2018-12-09T08:49:53.673Z,6.57
2018-12-09T08:52:21.684Z,10.67
2018-12-09T08:54:50.077Z,9.23
2018-12-09T08:57:18.069Z,15.73
2018-12-09T08:59:46.184Z,14.03
2018-12-09T09:02:14.141Z,6.90
2018-12-09T09:04:42.416Z,5.30
2018-12-09T09:07:10.436Z,7.07
2018-12-09T09:09:38.524Z,10.27
2018-12-09T09:12:06.715Z,6.70
2018-12-09T09:14:34.799Z,4.23
2018-12-09T09:17:02.905Z,3.30
2018-12-09T09:19:31.019Z,3.97
2018-12-09T09:21:59.047Z,7.70
2018-12-09T09:24:27.015Z,4.03
2018-12-09T09:26:55.179Z,2.97
2018-12-09T09:29:23.280Z,1.53
2018-12-09T09:31:51.985Z,3.37
2018-12-09T09:34:20.020Z,3.83
2018-12-09T09:36:48.120Z,8.33
2018-12-09T09:39:16.098Z,2.20
2018-12-09T09:41:44.132Z,1.40
2018-12-09T09:44:12.266Z,1.20
2018-12-09T09:46:41.439Z,4.47
2018-12-09T09:49:09.474Z,0.73
2018-12-09T09:51:37.490Z,0.70
2018-12-09T09:54:05.512Z,2.97
2018-12-09T09:56:33.573Z,3.40
2018-12-09T09:59:01.650Z,3.40
2018-12-09T10:01:29.747Z,1.13
2018-12-09T10:03:57.731Z,4.93
2018-12-09T10:06:25.796Z,5.03
2018-12-09T10:08:53.821Z,3.23
2018-12-09T10:11:21.883Z,3.00
2018-12-09T10:13:49.871Z,4.27
2018-12-09T10:16:17.843Z,4.07
2018-12-09T10:18:45.822Z,2.77
2018-12-09T10:21:13.802Z,1.23
2018-12-09T10:23:41.864Z,4.03
2018-12-09T10:26:09.887Z,0.80
2018-12-09T10:28:37.890Z,4.30
2018-12-09T10:31:05.986Z,3.67
2018-12-09T10:33:33.957Z,1.17
2018-12-09T10:36:02.122Z,2.20
2018-12-09T10:38:30.099Z,2.70
2018-12-09T10:40:58.088Z,1.30
2018-12-09T10:43:26.060Z,1.00
2018-12-09T10:45:54.289Z,2.80
2018-12-09T10:48:22.343Z,0.50
2018-12-09T10:50:50.310Z,2.20
2018-12-09T10:53:18.289Z,1.20
2018-12-09T10:55:46.451Z,0.93
2018-12-09T10:58:14.431Z,1.27
2018-12-09T11:00:48.030Z,2.87
2018-12-09T11:03:15.985Z,2.80
2018-12-09T11:05:44.006Z,3.43
2018-12-09T11:08:12.078Z,3.67
2018-12-09T11:10:40.090Z,2.93
2018-12-09T11:13:08.172Z,7.27
2018-12-09T11:15:36.944Z,9.80
2018-12-09T11:18:05.054Z,7.00
2018-12-09T11:20:33.055Z,5.93
2018-12-09T11:23:01.032Z,8.50
2018-12-09T11:25:29.207Z,10.70
2018-12-09T11:27:57.175Z,7.50
2018-12-09T11:30:25.236Z,7.60
2018-12-09T11:32:53.217Z,8.50
2018-12-09T11:35:21.288Z,6.30
2018-12-09T11:37:49.263Z,6.73
2018-12-09T11:40:17.259Z,6.03
2018-12-09T11:42:45.257Z,7.53
2018-12-09T11:45:13.234Z,2.37
2018-12-09T11:47:41.242Z,5.43
2018-12-09T11:50:09.445Z,3.93
2018-12-09T11:52:37.481Z,9.23
2018-12-09T11:55:05.609Z,2.63
2018-12-09T11:57:33.560Z,2.00
2018-12-09T12:00:01.572Z,7.07
2018-12-09T12:02:29.733Z,3.13
2018-12-09T12:04:57.691Z,5.00
2018-12-09T12:07:25.725Z,5.27
2018-12-09T12:09:53.717Z,3.07
2018-12-09T12:12:21.704Z,3.03
2018-12-09T12:14:49.712Z,4.17
2018-12-09T12:17:17.710Z,6.13
2018-12-09T12:19:45.741Z,4.97
2018-12-09T12:22:13.708Z,3.17
2018-12-09T12:24:41.726Z,3.30
2018-12-09T12:27:09.885Z,6.73
2018-12-09T12:29:37.940Z,3.80
2018-12-09T12:32:05.951Z,6.87
2018-12-09T12:34:33.919Z,8.27
2018-12-09T12:37:01.997Z,3.73
2018-12-09T12:39:30.019Z,12.40
2018-12-09T12:41:58.061Z,9.73
2018-12-09T12:44:26.111Z,14.50
2018-12-09T12:46:54.352Z,4.87
2018-12-09T12:49:22.459Z,9.27
2018-12-09T12:51:50.504Z,4.33
2018-12-09T12:54:18.607Z,10.17
2018-12-09T12:56:46.608Z,9.57
2018-12-09T12:59:14.583Z,2.83
2018-12-09T13:01:42.663Z,6.23
2018-12-09T13:04:10.748Z,12.37
2018-12-09T13:06:38.822Z,5.83
2018-12-09T13:09:07.530Z,3.57
2018-12-09T13:11:35.498Z,5.20
2018-12-09T13:14:03.569Z,8.13
2018-12-09T13:16:31.549Z,7.20
2018-12-09T13:18:59.599Z,7.53
2018-12-09T13:21:27.647Z,3.57
2018-12-09T13:23:55.608Z,9.47
2018-12-09T13:26:23.928Z,12.40
2018-12-09T13:28:51.968Z,12.37
2018-12-09T13:31:19.943Z,13.03
2018-12-09T13:33:48.019Z,9.97
2018-12-09T13:36:16.012Z,5.40
2018-12-09T13:38:44.014Z,5.87
2018-12-09T13:41:12.053Z,9.20
2018-12-09T13:43:40.034Z,10.57
2018-12-09T13:46:08.080Z,7.67
2018-12-09T13:48:36.257Z,9.17
2018-12-09T13:51:04.449Z,6.67
2018-12-09T13:53:32.507Z,13.07
2018-12-09T13:56:00.523Z,12.10
2018-12-09T13:58:28.540Z,17.77
2018-12-09T14:00:58.181Z,13.40
2018-12-09T14:03:26.214Z,8.93
2018-12-09T14:05:54.278Z,10.60
2018-12-09T14:08:22.625Z,6.17
2018-12-09T14:10:52.017Z,11.50
2018-12-09T14:13:20.161Z,8.27
2018-12-09T14:15:48.154Z,8.53
2018-12-09T14:18:16.190Z,6.27
2018-12-09T14:20:44.587Z,4.20
2018-12-09T14:23:13.590Z,8.33
2018-12-09T14:25:41.958Z,2.00
2018-12-09T14:28:10.293Z,7.23
2018-12-09T14:38:40.793Z,11.17
2018-12-09T14:41:08.903Z,11.93
2018-12-09T15:07:52.668Z,6.97
2018-12-09T15:16:30.355Z,8.60
2018-12-09T15:19:00.701Z,10.10
2018-12-09T15:21:30.924Z,8.13
2018-12-09T15:24:00.311Z,9.50
2018-12-09T15:26:29.656Z,11.50
2018-12-09T15:28:59.164Z,8.23
2018-12-09T15:31:28.663Z,16.93
2018-12-09T15:34:01.794Z,11.37
2018-12-09T15:36:31.924Z,14.87
2018-12-09T15:39:01.102Z,14.77
2018-12-09T15:41:30.535Z,8.60
2018-12-09T15:43:59.975Z,7.50
2018-12-09T15:46:29.413Z,16.53
2018-12-09T15:48:59.139Z,12.23
2018-12-09T15:51:28.499Z,8.60
2018-12-09T15:54:01.324Z,12.73
2018-12-09T15:56:30.741Z,13.57
2018-12-09T15:59:00.819Z,14.57
2018-12-09T16:01:30.473Z,11.63
2018-12-09T16:03:59.844Z,7.10
2018-12-09T16:06:37.935Z,12.37
2018-12-09T16:09:08.389Z,13.80
2018-12-09T16:11:37.789Z,9.77
2018-12-09T16:14:07.018Z,11.00
2018-12-09T16:16:36.365Z,13.63
2018-12-09T16:19:05.989Z,13.77
2018-12-09T16:21:35.293Z,13.47
2018-12-09T16:24:04.583Z,7.30
2018-12-09T16:26:33.599Z,4.47
2018-12-09T16:29:02.870Z,9.33
2018-12-09T16:31:31.885Z,15.67
2018-12-09T16:34:00.919Z,6.57
2018-12-09T16:36:30.092Z,6.57
2018-12-09T16:38:59.174Z,8.63
2018-12-09T16:41:28.319Z,6.03
2018-12-09T16:43:57.338Z,10.90
2018-12-09T16:46:26.573Z,10.87
2018-12-09T16:48:55.704Z,11.40
2018-12-09T16:51:25.135Z,11.10
2018-12-09T16:53:54.253Z,14.33
2018-12-09T16:56:23.384Z,6.67
2018-12-09T16:58:52.464Z,7.20
2018-12-09T17:01:21.529Z,6.23
2018-12-09T17:03:50.688Z,9.67
2018-12-09T17:06:19.761Z,13.23
2018-12-09T17:08:48.977Z,18.87
2018-12-09T17:11:18.088Z,13.03
2018-12-09T17:13:47.140Z,10.50
2018-12-09T17:16:17.274Z,18.63
2018-12-09T17:18:47.134Z,7.67
2018-12-09T17:21:16.844Z,16.40
2018-12-09T17:23:47.175Z,15.63
2018-12-09T17:26:16.739Z,13.27
2018-12-09T17:28:46.373Z,12.40
2018-12-09T17:31:15.877Z,13.60
2018-12-09T17:33:46.481Z,14.67
2018-12-09T17:36:17.632Z,10.37
2018-12-09T17:38:47.437Z,13.77
2018-12-09T17:41:24.955Z,9.60
2018-12-09T17:43:49.439Z,12.73
2018-12-09T17:46:18.542Z,14.60
2018-12-09T17:48:49.896Z,16.27
2018-12-09T17:51:19.759Z,12.30
2018-12-09T17:53:49.620Z,14.13
2018-12-09T17:56:20.777Z,19.20
2018-12-09T17:58:49.953Z,11.97
2018-12-09T18:01:22.066Z,13.97
2018-12-09T18:03:52.547Z,11.93
2018-12-09T18:06:21.736Z,14.10
2018-12-09T18:08:53.750Z,18.17
2018-12-09T18:11:26.593Z,6.33
2018-12-09T18:13:56.956Z,16.60
2018-12-09T18:16:26.153Z,15.13
2018-12-09T18:18:56.250Z,8.30
2018-12-09T18:21:25.355Z,8.77
2018-12-09T18:23:54.826Z,8.93
2018-12-09T18:26:24.041Z,15.73
2018-12-09T18:28:53.381Z,14.40
2018-12-09T18:31:22.619Z,18.20
2018-12-09T18:33:51.970Z,5.67
2018-12-09T18:36:21.839Z,11.63
2018-12-09T18:38:51.242Z,6.93
2018-12-09T18:41:21.039Z,6.93
2018-12-09T18:43:50.862Z,14.17
2018-12-09T18:46:20.073Z,5.77
2018-12-09T18:48:50.066Z,14.90
2018-12-09T18:51:19.322Z,15.80
2018-12-09T18:53:49.837Z,10.63
2018-12-09T18:56:19.032Z,5.27
2018-12-09T18:58:48.219Z,8.57
2018-12-09T19:01:17.552Z,11.23
2018-12-09T19:03:46.742Z,5.23
2018-12-09T19:06:16.836Z,9.80
2018-12-09T19:08:46.188Z,14.23
2018-12-09T19:11:15.525Z,11.90
2018-12-09T19:13:44.849Z,13.80
2018-12-09T19:16:15.039Z,10.67
2018-12-09T19:18:44.320Z,9.20
2018-12-09T19:21:13.894Z,21.83
2018-12-09T19:23:44.774Z,14.00
2018-12-09T19:26:16.812Z,9.77
2018-12-09T19:28:46.971Z,26.27
2018-12-09T19:31:16.476Z,19.20
2018-12-09T19:33:49.059Z,11.73
2018-12-09T19:36:19.616Z,15.40
2018-12-09T19:38:49.054Z,10.90
2018-12-09T19:41:18.615Z,19.70
2018-12-09T19:43:48.646Z,16.67
2018-12-09T19:46:18.393Z,17.50
2018-12-09T19:48:48.093Z,12.77
2018-12-09T19:51:17.797Z,16.13
2018-12-09T19:53:47.548Z,18.80
2018-12-09T19:56:17.030Z,19.17
2018-12-09T19:58:46.452Z,20.10
2018-12-09T20:01:15.948Z,9.57
2018-12-09T20:03:45.485Z,16.70
2018-12-09T20:06:15.091Z,13.37
2018-12-09T20:08:44.756Z,9.67
2018-12-09T20:11:15.288Z,13.57
2018-12-09T20:13:45.112Z,14.87
2018-12-09T20:16:14.843Z,12.30
2018-12-09T20:18:45.271Z,19.07
2018-12-09T20:21:16.410Z,16.83
2018-12-09T20:23:46.460Z,19.33
2018-12-09T20:26:16.412Z,10.73
2018-12-09T20:28:46.074Z,19.03
2018-12-09T20:31:16.333Z,18.23
2018-12-09T20:33:46.085Z,17.70
2018-12-09T20:36:15.461Z,31.30
2018-12-09T20:38:45.042Z,25.30
2018-12-09T20:41:15.119Z,17.00
2018-12-09T20:43:45.122Z,18.13
2018-12-09T20:46:15.014Z,16.37
2018-12-09T20:48:44.622Z,18.63
2018-12-09T20:51:14.258Z,9.37
2018-12-09T20:53:44.235Z,16.73
2018-12-09T20:56:13.780Z,14.13
2018-12-09T20:58:43.849Z,13.80
2018-12-09T21:01:13.227Z,22.40
2018-12-09T21:03:42.841Z,21.40
2018-12-09T21:06:12.208Z,16.60
2018-12-09T21:08:41.540Z,23.70
2018-12-09T21:11:10.966Z,15.47
2018-12-09T21:13:40.503Z,14.40
2018-12-09T21:16:09.849Z,20.60
2018-12-09T21:18:39.150Z,20.33
2018-12-09T21:21:08.448Z,15.87
2018-12-09T21:25:30.096Z,15.47
2018-12-09T21:27:59.737Z,25.23
2018-12-09T21:30:29.405Z,19.50
2018-12-09T21:32:58.532Z,17.93
2018-12-09T21:35:27.725Z,14.33
2018-12-09T21:37:56.946Z,20.17
2018-12-09T21:40:26.284Z,28.73
2018-12-09T21:42:55.598Z,20.17
2018-12-09T21:45:24.774Z,22.13
2018-12-09T21:47:53.878Z,21.27
2018-12-09T21:50:23.055Z,17.27
2018-12-09T21:52:52.225Z,16.80
2018-12-09T21:55:21.320Z,13.57
2018-12-09T21:57:50.399Z,12.63
2018-12-09T22:00:19.422Z,17.97
2018-12-09T22:02:48.484Z,14.60
2018-12-09T22:05:17.575Z,13.23
2018-12-09T22:07:46.658Z,17.83
2018-12-09T22:10:16.405Z,16.43
2018-12-09T22:12:45.591Z,13.53
2018-12-09T22:15:14.687Z,12.03
2018-12-09T22:17:43.783Z,29.00
2018-12-09T22:20:12.958Z,22.40
2018-12-09T22:22:42.151Z,29.90
2018-12-09T22:25:11.179Z,11.37
2018-12-09T22:27:40.348Z,16.17
2018-12-09T22:30:09.529Z,22.13
2018-12-09T22:32:38.724Z,15.93
2018-12-09T22:35:08.286Z,20.87
2018-12-09T22:37:37.312Z,18.57
2018-12-09T22:40:08.241Z,16.67
2018-12-09T22:42:38.436Z,15.03
2018-12-09T22:45:07.683Z,20.80
2018-12-09T22:47:36.736Z,5.97
2018-12-09T22:50:05.925Z,26.63
2018-12-09T22:52:34.952Z,17.37
2018-12-09T22:55:04.413Z,18.93
2018-12-09T22:57:33.475Z,14.80
2018-12-09T23:00:02.569Z,18.70
2018-12-09T23:02:36.947Z,14.87
2018-12-09T23:05:06.196Z,15.03
2018-12-09T23:07:40.650Z,10.20
2018-12-09T23:10:09.758Z,13.40
2018-12-09T23:12:38.776Z,11.43
2018-12-09T23:15:07.868Z,15.57
2018-12-09T23:17:36.875Z,18.37
2018-12-09T23:20:05.960Z,12.03
2018-12-09T23:22:34.956Z,13.93
2018-12-09T23:25:04.228Z,9.80
2018-12-09T23:27:33.237Z,4.37
2018-12-09T23:30:02.316Z,10.37
2018-12-09T23:32:31.395Z,11.40
2018-12-09T23:35:00.428Z,9.03
2018-12-09T23:37:29.521Z,11.17
2018-12-09T23:39:58.528Z,9.97
2018-12-09T23:42:27.572Z,11.97
2018-12-09T23:44:56.562Z,6.90
2018-12-09T23:47:25.549Z,3.67
2018-12-09T23:49:54.594Z,6.63
2018-12-09T23:52:23.590Z,5.77
2018-12-09T23:54:52.588Z,7.50
2018-12-09T23:57:21.617Z,3.27
2018-12-09T23:59:50.639Z,8.43
